Time;durP1;ratioP1;P1;durP2;ratioP2;P2;SDS_P1;SDS_P2;PMS_P1;PMS_P2;Temp;Humidity;BMP_temperature;BMP_pressure;BME280_temperature;BME280_humidity;BME280_pressure;Samples;Min_cycle;Max_cycle;Signal;HPM_P1;HPM_P2
2022/11/25 00:00:49;;;;;;;38.72;20.80;;;10.80;66.20;;;;;;4933120;29;20042;-82
2022/11/25 00:03:15;;;;;;;44.63;22.80;;;10.70;66.70;;;;;;4906138;29;20054;-83
2022/11/25 00:05:41;;;;;;;45.78;22.67;;;10.80;66.40;;;;;;4920282;29;20024;-83
2022/11/25 00:08:07;;;;;;;38.42;20.67;;;10.70;66.50;;;;;;4905793;29;20087;-82
2022/11/25 00:10:32;;;;;;;43.65;22.08;;;10.80;66.50;;;;;;4940063;29;20412;-83
2022/11/25 00:12:58;;;;;;;40.47;21.63;;;10.90;66.60;;;;;;4923068;29;20020;-82
2022/11/25 00:15:24;;;;;;;45.17;22.73;;;11.00;66.10;;;;;;4922485;29;20047;-83
2022/11/25 00:17:50;;;;;;;44.10;22.45;;;11.20;65.10;;;;;;4920673;29;20472;-84
2022/11/25 00:20:18;;;;;;;43.72;22.35;;;11.20;64.90;;;;;;4908782;29;20091;-83
2022/11/25 00:22:44;;;;;;;45.75;23.08;;;11.10;65.20;;;;;;4954077;29;20024;-84
2022/11/25 00:25:12;;;;;;;42.55;22.10;;;11.20;65.10;;;;;;4919546;29;20527;-84
2022/11/25 00:27:37;;;;;;;43.63;22.25;;;11.10;65.30;;;;;;4920761;29;20020;-83
2022/11/25 00:30:04;;;;;;;40.25;21.65;;;11.10;65.00;;;;;;4907395;29;20060;-84
2022/11/25 00:32:29;;;;;;;40.03;21.00;;;11.00;65.60;;;;;;4922089;29;20023;-82
2022/11/25 00:34:55;;;;;;;37.20;20.90;;;11.10;65.20;;;;;;4922056;29;20023;-83
2022/11/25 00:37:21;;;;;;;43.85;21.60;;;11.20;64.90;;;;;;4922473;29;20026;-83
2022/11/25 00:39:46;;;;;;;39.85;21.13;;;11.40;65.00;;;;;;4921680;29;20031;-83
2022/11/25 00:44:56;;;;;;;42.53;21.02;;;11.30;65.00;;;;;;4939152;29;20054;-84
2022/11/25 00:47:22;;;;;;;45.78;23.42;;;10.90;66.00;;;;;;4954124;29;20015;-82
2022/11/25 00:49:50;;;;;;;36.80;20.92;;;10.70;66.90;;;;;;4921690;29;20027;-84
2022/11/25 00:52:18;;;;;;;42.13;22.33;;;10.70;66.40;;;;;;4911368;29;20020;-84
2022/11/25 00:54:46;;;;;;;41.42;22.10;;;10.80;65.80;;;;;;4911103;29;20521;-84
2022/11/25 00:57:12;;;;;;;37.67;21.88;;;10.70;66.50;;;;;;4939252;29;20040;-84
2022/11/25 00:59:38;;;;;;;42.88;22.05;;;10.80;66.10;;;;;;4921836;29;20047;-83
2022/11/25 01:02:04;;;;;;;40.72;22.17;;;11.00;65.50;;;;;;4922222;29;20059;-84
2022/11/25 01:04:30;;;;;;;42.00;21.83;;;11.10;65.10;;;;;;4922036;29;20414;-83
2022/11/25 01:06:58;;;;;;;36.88;21.05;;;11.30;64.70;;;;;;4953893;29;20032;-84
2022/11/25 01:09:24;;;;;;;44.45;22.83;;;11.20;64.70;;;;;;4922284;29;20055;-82
2022/11/25 01:11:50;;;;;;;43.22;22.77;;;11.00;65.60;;;;;;4922147;29;20024;-82
2022/11/25 01:14:17;;;;;;;42.42;22.10;;;10.80;65.00;;;;;;4922204;29;20047;-83
2022/11/25 01:16:43;;;;;;;42.80;21.52;;;10.70;65.80;;;;;;4921353;29;20027;-84
2022/11/25 01:19:10;;;;;;;44.63;22.27;;;10.70;66.00;;;;;;4939078;29;20075;-84
2022/11/25 01:21:36;;;;;;;43.38;21.67;;;10.80;65.90;;;;;;4922121;29;20455;-84
2022/11/25 01:24:03;;;;;;;39.60;22.25;;;10.80;66.40;;;;;;4938581;29;20035;-82
2022/11/25 01:26:32;;;;;;;39.33;21.75;;;11.10;65.10;;;;;;4938942;29;20011;-84
2022/11/25 01:29:02;;;;;;;38.55;21.80;;;11.00;65.30;;;;;;4921141;29;20058;-83
2022/11/25 01:31:32;;;;;;;39.30;20.63;;;11.20;64.30;;;;;;4918502;29;20060;-83
2022/11/25 01:34:05;;;;;;;43.03;21.05;;;11.30;64.30;;;;;;4921295;29;20064;-83
2022/11/25 01:36:31;;;;;;;41.55;21.25;;;11.30;64.50;;;;;;4921184;29;20520;-85
2022/11/25 01:38:59;;;;;;;41.60;21.83;;;11.60;63.60;;;;;;4921023;29;20072;-84
2022/11/25 01:41:27;;;;;;;40.88;21.20;;;11.50;64.00;;;;;;4937917;29;20015;-83
2022/11/25 01:44:13;;;;;;;38.75;20.88;;;11.50;63.80;;;;;;4920448;29;20031;-85
2022/11/25 01:47:13;;;;;;;41.50;21.23;;;11.70;63.60;;;;;;4921404;29;20371;-83
2022/11/25 01:49:52;;;;;;;39.80;21.63;;;11.70;63.40;;;;;;4931043;29;20031;-82
2022/11/25 01:52:35;;;;;;;41.30;22.45;;;11.80;62.50;;;;;;4908955;29;20027;-82
2022/11/25 01:55:14;;;;;;;37.78;20.58;;;11.80;63.10;;;;;;4929862;29;20020;-83
2022/11/25 01:57:43;;;;;;;42.03;20.92;;;11.80;62.50;;;;;;4920352;29;20032;-84
2022/11/25 02:00:10;;;;;;;42.05;22.23;;;11.70;63.20;;;;;;4934146;29;20095;-84
2022/11/25 02:02:35;;;;;;;40.38;21.50;;;11.70;62.50;;;;;;4911357;29;20159;-84
2022/11/25 02:05:06;;;;;;;39.20;22.27;;;11.70;62.80;;;;;;4901883;29;20119;-83
2022/11/25 02:07:44;;;;;;;40.72;22.05;;;11.70;63.10;;;;;;4912589;29;20020;-84
2022/11/25 02:10:14;;;;;;;42.15;22.50;;;11.70;62.90;;;;;;4920044;29;20486;-91
2022/11/25 02:12:42;;;;;;;41.28;21.23;;;11.80;62.70;;;;;;4938193;29;20024;-83
2022/11/25 02:15:08;;;;;;;40.00;21.70;;;11.70;63.20;;;;;;4919832;29;20044;-83
2022/11/25 02:17:34;;;;;;;41.58;21.77;;;11.60;63.10;;;;;;4936978;29;20047;-86
2022/11/25 02:20:20;;;;;;;45.90;22.08;;;11.60;63.30;;;;;;4920430;29;20446;-84
2022/11/25 02:22:55;;;;;;;40.90;22.20;;;11.70;63.10;;;;;;4920148;29;20115;-85
2022/11/25 02:25:33;;;;;;;44.65;22.60;;;11.90;62.50;;;;;;4916831;29;20031;-86
2022/11/25 02:28:34;;;;;;;38.85;20.90;;;12.10;61.90;;;;;;4919033;29;20070;-84
2022/11/25 02:31:00;;;;;;;42.97;22.10;;;12.20;61.80;;;;;;4893917;29;20041;-87
2022/11/25 02:33:26;;;;;;;42.58;21.35;;;12.20;61.60;;;;;;4878855;29;20041;-85
2022/11/25 02:35:55;;;;;;;42.63;21.52;;;12.10;61.70;;;;;;4863099;29;20500;-84
2022/11/25 02:38:39;;;;;;;44.58;23.40;;;11.70;62.60;;;;;;4862945;29;20037;-85
2022/11/25 02:41:20;;;;;;;42.30;21.20;;;11.50;63.30;;;;;;4863870;29;20035;-84
2022/11/25 02:43:46;;;;;;;39.10;21.63;;;11.30;63.30;;;;;;4862621;29;20080;-83
2022/11/25 02:46:15;;;;;;;41.25;22.02;;;11.20;64.40;;;;;;4863779;29;20536;-91
2022/11/25 02:48:41;;;;;;;37.55;20.80;;;11.50;63.50;;;;;;4863591;29;20365;-84
2022/11/25 02:51:10;;;;;;;37.30;20.73;;;11.60;63.10;;;;;;4878812;29;20033;-84
2022/11/25 02:53:36;;;;;;;39.55;20.75;;;11.30;63.40;;;;;;4863069;29;20464;-83
2022/11/25 02:56:02;;;;;;;38.13;20.60;;;11.50;63.30;;;;;;4878182;29;20100;-91
2022/11/25 02:58:27;;;;;;;38.67;21.15;;;11.50;63.10;;;;;;4878244;29;20067;-82
2022/11/25 03:00:53;;;;;;;35.30;18.98;;;11.60;63.10;;;;;;4878324;29;20104;-83
2022/11/25 03:03:19;;;;;;;40.60;20.75;;;11.50;62.60;;;;;;4862933;29;20017;-83
2022/11/25 03:05:45;;;;;;;37.60;20.20;;;11.40;62.80;;;;;;4926087;29;20036;-84
2022/11/25 03:08:11;;;;;;;39.50;20.98;;;11.10;64.20;;;;;;4919736;29;20030;-84
2022/11/25 03:10:38;;;;;;;38.88;20.35;;;11.40;63.70;;;;;;4919588;29;20027;-85
2022/11/25 03:13:05;;;;;;;36.70;20.13;;;11.50;63.00;;;;;;4936795;29;20035;-84
2022/11/25 03:15:30;;;;;;;39.75;20.10;;;11.70;62.40;;;;;;4919803;29;20451;-83
2022/11/25 03:17:56;;;;;;;37.10;18.95;;;11.90;61.70;;;;;;4919527;29;20115;-86
2022/11/25 03:20:22;;;;;;;37.42;19.60;;;11.80;61.70;;;;;;4919469;29;20032;-84
2022/11/25 03:22:48;;;;;;;40.35;20.58;;;11.70;61.90;;;;;;4918482;29;20065;-82
2022/11/25 03:25:15;;;;;;;34.80;19.45;;;12.00;61.50;;;;;;4919278;29;20087;-83
2022/11/25 03:27:41;;;;;;;40.50;20.83;;;11.90;61.30;;;;;;4919220;29;20118;-83
2022/11/25 03:30:10;;;;;;;39.90;20.38;;;11.90;61.20;;;;;;4918841;29;20114;-83
2022/11/25 03:32:36;;;;;;;35.90;20.52;;;11.60;62.00;;;;;;4919218;29;20035;-83
2022/11/25 03:35:01;;;;;;;36.70;20.48;;;11.40;62.40;;;;;;4936261;29;20027;-83
2022/11/25 03:37:27;;;;;;;35.08;19.55;;;11.30;63.00;;;;;;4907730;29;20024;-84
2022/11/25 03:39:53;;;;;;;36.63;19.50;;;11.70;62.30;;;;;;4900278;29;20371;-91
2022/11/25 03:42:18;;;;;;;39.65;20.73;;;11.70;61.90;;;;;;4934169;29;20020;-84
2022/11/25 03:44:44;;;;;;;37.58;20.48;;;11.70;61.90;;;;;;4919193;29;20386;-82
2022/11/25 03:47:09;;;;;;;34.30;19.58;;;11.60;62.30;;;;;;4915820;29;20376;-83
2022/11/25 03:49:35;;;;;;;41.97;20.23;;;11.80;61.30;;;;;;4916056;29;20507;-83
2022/11/25 03:52:01;;;;;;;35.45;19.67;;;11.70;61.40;;;;;;4914071;29;20028;-83
2022/11/25 03:54:27;;;;;;;38.92;20.30;;;11.40;62.40;;;;;;4919050;29;20031;-82
2022/11/25 03:56:53;;;;;;;37.47;19.25;;;11.20;62.80;;;;;;4916731;29;20020;-84
2022/11/25 03:59:19;;;;;;;37.92;18.77;;;11.10;63.40;;;;;;4922141;29;20032;-84
2022/11/25 04:01:45;;;;;;;34.90;19.17;;;11.20;63.00;;;;;;4919142;29;20026;-82
2022/11/25 04:04:10;;;;;;;36.38;19.65;;;11.00;63.40;;;;;;4918409;29;20139;-84
2022/11/25 04:06:38;;;;;;;35.67;19.50;;;11.00;63.10;;;;;;4928906;29;20036;-80
2022/11/25 04:09:05;;;;;;;36.53;18.65;;;11.10;63.30;;;;;;4915966;29;20028;-80
2022/11/25 04:14:15;;;;;;;39.88;19.33;;;11.20;63.20;;;;;;4932559;29;20055;-82
2022/11/25 04:16:42;;;;;;;39.22;19.90;;;11.10;63.10;;;;;;4919222;29;20027;-81
2022/11/25 04:19:07;;;;;;;41.00;21.40;;;11.10;63.40;;;;;;4915415;29;20027;-83
2022/11/25 04:21:33;;;;;;;42.50;21.48;;;10.90;63.90;;;;;;4899892;29;20376;-83
2022/11/25 04:23:58;;;;;;;39.65;20.02;;;10.80;64.20;;;;;;4899572;29;20036;-83
2022/11/25 04:26:24;;;;;;;43.15;20.30;;;11.00;64.10;;;;;;4916852;29;20024;-82
2022/11/25 04:28:50;;;;;;;39.33;20.45;;;11.30;63.10;;;;;;4915530;29;20032;-82
2022/11/25 04:31:16;;;;;;;41.17;20.50;;;11.20;63.10;;;;;;4918674;29;20198;-92
2022/11/25 04:33:41;;;;;;;34.47;17.77;;;11.10;63.30;;;;;;4916879;29;20344;-83
2022/11/25 04:36:07;;;;;;;34.25;18.27;;;11.00;63.60;;;;;;4935656;29;20379;-86
2022/11/25 04:38:33;;;;;;;36.38;18.63;;;11.00;63.20;;;;;;4918544;29;20371;-82
2022/11/25 04:40:59;;;;;;;34.42;18.65;;;11.10;63.50;;;;;;4919202;29;20035;-83
2022/11/25 04:43:24;;;;;;;34.22;18.30;;;11.30;62.60;;;;;;4950582;29;20027;-87
2022/11/25 04:45:52;;;;;;;37.55;19.20;;;11.00;63.40;;;;;;4917416;29;20047;-85
2022/11/25 04:48:18;;;;;;;37.83;19.52;;;11.00;63.10;;;;;;4915478;29;20463;-84
2022/11/25 04:50:43;;;;;;;36.10;19.73;;;10.90;64.10;;;;;;4908109;29;20027;-82
2022/11/25 04:53:09;;;;;;;42.20;21.52;;;10.90;63.80;;;;;;4921058;29;20162;-82
2022/11/25 04:55:35;;;;;;;43.25;20.25;;;11.00;63.40;;;;;;4906787;29;20115;-81
2022/11/25 04:58:01;;;;;;;40.42;21.13;;;11.10;63.30;;;;;;4921694;29;20373;-83
2022/11/25 05:00:26;;;;;;;41.97;19.45;;;11.10;63.10;;;;;;4953673;29;20517;-83
2022/11/25 05:02:52;;;;;;;38.63;19.42;;;11.20;62.50;;;;;;4938946;29;20028;-83
2022/11/25 05:05:18;;;;;;;40.40;19.08;;;11.40;62.20;;;;;;4921823;29;20032;-90
2022/11/25 05:07:43;;;;;;;35.67;18.85;;;11.40;61.80;;;;;;4922227;29;20062;-82
2022/11/25 05:10:09;;;;;;;52.88;28.63;;;11.50;61.60;;;;;;4922037;29;20105;-84
2022/11/25 05:12:35;;;;;;;45.78;24.50;;;11.50;62.00;;;;;;4921967;29;20027;-85
2022/11/25 05:15:01;;;;;;;36.92;19.00;;;11.50;62.20;;;;;;4921558;29;20134;-84
2022/11/25 05:17:29;;;;;;;40.08;21.50;;;11.30;62.10;;;;;;4922395;29;20111;-84
2022/11/25 05:19:55;;;;;;;43.90;22.38;;;11.20;62.40;;;;;;4921815;29;20020;-85
2022/11/25 05:22:23;;;;;;;40.50;21.48;;;11.10;62.60;;;;;;4938894;29;20022;-82
2022/11/25 05:24:49;;;;;;;42.97;23.77;;;11.10;62.80;;;;;;4938651;29;20035;-82
2022/11/25 05:27:15;;;;;;;44.05;23.45;;;11.30;62.50;;;;;;4921652;29;20106;-83
2022/11/25 05:29:41;;;;;;;37.65;20.30;;;11.60;61.80;;;;;;4921808;29;20111;-83
2022/11/25 05:32:08;;;;;;;38.80;20.02;;;11.80;61.00;;;;;;4921228;29;20027;-83
2022/11/25 05:34:34;;;;;;;38.58;20.08;;;11.80;61.00;;;;;;4937786;29;20024;-83
2022/11/25 05:37:00;;;;;;;41.60;20.40;;;11.50;62.00;;;;;;4920966;29;20027;-83
2022/11/25 05:39:25;;;;;;;39.65;20.20;;;11.50;61.60;;;;;;4917591;29;20036;-82
2022/11/25 05:41:51;;;;;;;39.83;20.17;;;11.30;61.70;;;;;;4919420;29;20095;-83
2022/11/25 05:44:17;;;;;;;39.10;20.55;;;11.20;61.80;;;;;;4909430;29;20031;-87
2022/11/25 05:46:46;;;;;;;44.70;21.73;;;11.40;61.80;;;;;;4908313;29;20016;-85
2022/11/25 05:49:12;;;;;;;42.10;20.20;;;11.30;61.70;;;;;;4920470;29;20380;-84
2022/11/25 05:51:38;;;;;;;41.65;20.70;;;11.20;62.10;;;;;;4938022;29;20435;-80
2022/11/25 05:54:04;;;;;;;43.72;20.63;;;11.20;61.90;;;;;;4920030;29;20483;-81
2022/11/25 05:56:29;;;;;;;43.50;21.95;;;11.00;63.10;;;;;;4921217;29;20142;-83
2022/11/25 05:58:57;;;;;;;41.88;22.60;;;11.10;62.40;;;;;;4920449;29;20057;-82
2022/11/25 06:01:22;;;;;;;41.00;21.35;;;11.30;61.60;;;;;;4920646;29;20115;-81
2022/11/25 06:03:48;;;;;;;60.03;30.65;;;11.50;61.80;;;;;;4919590;29;20119;-80
2022/11/25 06:06:16;;;;;;;60.58;31.10;;;11.60;60.90;;;;;;4937588;29;20031;-80
2022/11/25 06:08:43;;;;;;;50.50;27.60;;;11.60;61.10;;;;;;4920138;29;20031;-80
2022/11/25 06:11:12;;;;;;;45.38;23.80;;;11.70;61.20;;;;;;4937074;29;20119;-82
2022/11/25 06:13:39;;;;;;;48.28;22.73;;;11.90;60.60;;;;;;4920939;29;20471;-82
2022/11/25 06:16:16;;;;;;;41.33;20.67;;;12.00;59.70;;;;;;4918007;29;20040;-78
2022/11/25 06:18:42;;;;;;;44.25;22.15;;;12.00;60.10;;;;;;4915377;29;20037;-81
2022/11/25 06:21:08;;;;;;;41.88;20.98;;;11.90;60.10;;;;;;4937007;29;20038;-82
2022/11/25 06:23:35;;;;;;;40.50;20.25;;;11.60;59.80;;;;;;4916937;29;20024;-82
2022/11/25 06:26:07;;;;;;;40.72;20.17;;;11.10;61.30;;;;;;4919950;29;20059;-87
2022/11/25 06:28:33;;;;;;;48.97;22.20;;;11.00;62.20;;;;;;4920072;29;20026;-88
2022/11/25 06:31:11;;;;;;;39.38;20.58;;;11.00;61.50;;;;;;4936782;29;20529;-86
2022/11/25 06:33:37;;;;;;;44.22;21.83;;;11.00;62.00;;;;;;4919675;29;20122;-81
2022/11/25 06:36:05;;;;;;;41.45;20.67;;;11.00;61.60;;;;;;4936900;29;20055;-87
2022/11/25 06:38:31;;;;;;;40.78;21.27;;;10.80;62.10;;;;;;4937095;29;20126;-81
2022/11/25 06:41:04;;;;;;;42.13;21.90;;;10.50;62.80;;;;;;4920297;29;20034;-84
2022/11/25 06:43:34;;;;;;;43.00;21.80;;;10.30;62.60;;;;;;4919752;29;20110;-80
2022/11/25 06:46:08;;;;;;;41.70;20.88;;;10.00;63.40;;;;;;4919179;29;20024;-81
2022/11/25 06:48:35;;;;;;;42.92;21.92;;;9.80;64.30;;;;;;4935920;29;20023;-84
2022/11/25 06:51:04;;;;;;;47.30;21.95;;;9.80;64.20;;;;;;4919673;29;20030;-81
2022/11/25 06:53:31;;;;;;;41.03;21.65;;;10.30;63.50;;;;;;4919609;29;20019;-87
2022/11/25 06:56:02;;;;;;;43.53;21.85;;;10.70;62.10;;;;;;4919863;29;20035;-87
2022/11/25 06:58:31;;;;;;;41.05;22.13;;;11.00;61.50;;;;;;4919749;29;20043;-89
2022/11/25 07:01:13;;;;;;;38.72;20.75;;;11.10;61.00;;;;;;4936780;29;20024;-85
2022/11/25 07:03:40;;;;;;;37.83;20.75;;;11.30;61.00;;;;;;4920045;29;20023;-84
2022/11/25 07:06:06;;;;;;;41.47;20.88;;;11.30;61.10;;;;;;4919742;29;20070;-87
2022/11/25 07:08:32;;;;;;;44.38;22.13;;;11.30;60.70;;;;;;4918450;29;20019;-87
2022/11/25 07:11:05;;;;;;;42.60;21.40;;;11.20;61.10;;;;;;4916835;29;20024;-80
2022/11/25 07:13:31;;;;;;;39.17;21.38;;;11.10;61.30;;;;;;4912350;29;20055;-80
2022/11/25 07:16:05;;;;;;;46.63;22.88;;;11.10;61.50;;;;;;4919317;29;20051;-81
2022/11/25 07:18:35;;;;;;;42.05;21.70;;;10.90;62.00;;;;;;4920014;29;20482;-81
2022/11/25 07:21:07;;;;;;;43.67;21.83;;;11.20;61.70;;;;;;4900618;29;20075;-80
2022/11/25 07:23:35;;;;;;;45.75;22.55;;;11.40;61.60;;;;;;4900256;29;20440;-81
2022/11/25 07:26:27;;;;;;;43.13;21.77;;;11.70;61.00;;;;;;4936198;29;20034;-80
2022/11/25 07:28:56;;;;;;;43.85;22.23;;;12.10;60.20;;;;;;4919100;29;20447;-79
2022/11/25 07:31:23;;;;;;;40.67;21.17;;;12.30;60.30;;;;;;4919280;29;20412;-80
2022/11/25 07:34:01;;;;;;;42.10;20.45;;;12.30;59.70;;;;;;4951023;29;20024;-83
2022/11/25 07:36:28;;;;;;;40.88;20.48;;;12.30;59.50;;;;;;4935876;29;20039;-79
2022/11/25 07:38:53;;;;;;;43.70;21.70;;;12.20;60.20;;;;;;4918743;29;20027;-81
2022/11/25 07:41:22;;;;;;;39.60;21.90;;;12.20;60.40;;;;;;4918362;29;20047;-81
2022/11/25 07:43:50;;;;;;;39.25;20.13;;;12.50;60.40;;;;;;4918552;29;20403;-87
2022/11/25 07:46:21;;;;;;;36.88;20.63;;;12.70;59.30;;;;;;4918342;29;20039;-84
2022/11/25 07:48:47;;;;;;;37.65;21.52;;;12.70;59.90;;;;;;4918835;29;20085;-80
2022/11/25 07:51:29;;;;;;;36.40;19.35;;;12.80;59.20;;;;;;4919007;29;20024;-84
2022/11/25 07:53:56;;;;;;;36.60;20.23;;;13.00;59.30;;;;;;4918479;29;20091;-80
2022/11/25 07:56:23;;;;;;;38.08;21.23;;;13.20;59.30;;;;;;4918664;29;20043;-81
2022/11/25 07:58:48;;;;;;;34.60;19.60;;;13.50;58.70;;;;;;4918994;29;20020;-80
2022/11/25 08:01:16;;;;;;;33.22;17.83;;;13.40;58.50;;;;;;4936044;29;20431;-80
2022/11/25 08:03:42;;;;;;;30.63;18.40;;;13.20;58.80;;;;;;4918303;29;20027;-81
2022/11/25 08:06:12;;;;;;;35.78;18.90;;;13.30;58.40;;;;;;4936213;29;20032;-79
2022/11/25 08:08:40;;;;;;;34.42;19.70;;;13.50;58.00;;;;;;4934437;29;20019;-88
2022/11/25 08:11:12;;;;;;;34.70;19.75;;;13.60;57.90;;;;;;4908308;29;20028;-83
2022/11/25 08:13:38;;;;;;;32.30;17.73;;;13.70;57.40;;;;;;4918868;29;20375;-80
2022/11/25 08:16:05;;;;;;;33.40;17.77;;;13.40;58.70;;;;;;4935357;29;20055;-80
2022/11/25 08:18:31;;;;;;;30.23;17.40;;;13.20;58.40;;;;;;4918653;29;20479;-82
2022/11/25 08:21:05;;;;;;;32.25;17.95;;;13.10;59.10;;;;;;4917173;29;20167;-80
2022/11/25 08:23:35;;;;;;;30.75;17.17;;;13.30;58.80;;;;;;4899983;29;20024;-83
2022/11/25 08:26:09;;;;;;;33.15;18.13;;;13.30;58.40;;;;;;4917081;29;20069;-82
2022/11/25 08:28:36;;;;;;;31.85;17.15;;;13.10;58.90;;;;;;4903556;29;20027;-81
2022/11/25 08:31:03;;;;;;;31.40;17.08;;;13.30;58.70;;;;;;4903427;29;20028;-81
2022/11/25 08:33:29;;;;;;;29.58;17.35;;;13.80;58.80;;;;;;4903472;29;20067;-81
2022/11/25 08:35:55;;;;;;;30.10;17.17;;;14.70;57.30;;;;;;4919008;29;20032;-80
2022/11/25 08:38:21;;;;;;;26.23;15.27;;;16.10;55.50;;;;;;4930327;29;20019;-80
2022/11/25 08:40:47;;;;;;;31.75;16.35;;;18.00;52.50;;;;;;4921789;29;20171;-81
2022/11/25 08:43:13;;;;;;;26.73;16.92;;;20.00;50.00;;;;;;4938528;29;20031;-87
2022/11/25 08:45:39;;;;;;;30.10;16.52;;;21.80;48.20;;;;;;4921729;29;20459;-89
2022/11/25 08:48:05;;;;;;;27.30;16.92;;;23.50;46.20;;;;;;4922197;29;20023;-89
2022/11/25 08:50:31;;;;;;;27.15;17.00;;;24.80;43.90;;;;;;4922331;29;20022;-82
2022/11/25 08:52:58;;;;;;;27.38;17.00;;;25.90;43.40;;;;;;4938050;29;20024;-87
2022/11/25 08:55:26;;;;;;;26.63;16.45;;;27.30;42.70;;;;;;4939080;29;20103;-88
2022/11/25 08:57:52;;;;;;;25.40;16.65;;;27.90;41.70;;;;;;4922498;29;20035;-90
2022/11/25 09:00:18;;;;;;;25.67;16.30;;;28.60;41.00;;;;;;4939199;29;20016;-90
2022/11/25 09:02:44;;;;;;;23.95;16.65;;;29.10;40.50;;;;;;4920710;29;20019;-81
2022/11/25 09:05:16;;;;;;;24.65;15.85;;;29.30;40.50;;;;;;4937433;29;20058;-83
2022/11/25 09:07:42;;;;;;;23.30;15.60;;;29.10;40.60;;;;;;4591848;29;10000375;-87
2022/11/25 09:10:13;;;;;;;22.08;15.88;;;29.00;40.20;;;;;;4919087;29;20031;-79
2022/11/25 09:12:39;;;;;;;21.70;14.63;;;29.20;40.60;;;;;;4918491;29;20055;-90
2022/11/25 09:15:05;;;;;;;21.83;15.20;;;29.40;39.80;;;;;;4919652;29;20035;-81
2022/11/25 09:17:33;;;;;;;19.85;14.43;;;29.20;40.10;;;;;;4918532;29;20379;-86
2022/11/25 09:19:59;;;;;;;22.15;15.80;;;29.30;39.90;;;;;;4935162;29;20020;-79
2022/11/25 09:22:24;;;;;;;19.60;12.93;;;29.30;40.10;;;;;;4934251;29;20023;-79
2022/11/25 09:24:52;;;;;;;20.27;14.38;;;29.30;39.70;;;;;;4916713;29;20111;-80
2022/11/25 09:27:18;;;;;;;18.88;12.68;;;29.10;39.80;;;;;;4917425;29;20055;-84
2022/11/25 09:29:44;;;;;;;18.33;12.10;;;29.20;39.90;;;;;;4917515;29;20036;-90
2022/11/25 09:32:09;;;;;;;18.75;12.40;;;29.00;39.70;;;;;;4918117;29;20032;-85
2022/11/25 09:34:35;;;;;;;16.67;11.88;;;28.20;39.60;;;;;;4899416;29;20464;-82
2022/11/25 09:37:01;;;;;;;17.20;12.13;;;28.10;40.20;;;;;;4917789;29;20024;-80
2022/11/25 09:39:28;;;;;;;18.42;11.70;;;27.90;39.80;;;;;;4918602;29;20059;-81
2022/11/25 09:48:01;;;;;;;14.00;9.38;;;28.30;39.60;;;;;;4933272;29;20506;-81
2022/11/25 09:50:55;;;;;;;14.13;9.40;;;28.80;39.40;;;;;;4935032;29;20036;-83
2022/11/25 09:53:53;;;;;;;13.90;10.13;;;28.10;38.90;;;;;;4854044;29;20037;-82
2022/11/25 09:56:41;;;;;;;12.80;8.90;;;26.30;40.80;;;;;;4860381;29;20034;-83
2022/11/25 09:59:19;;;;;;;16.35;9.70;;;27.00;39.50;;;;;;4860520;29;20033;-85
2022/11/25 10:01:54;;;;;;;14.50;9.90;;;27.10;39.60;;;;;;4844722;29;20206;-82
2022/11/25 10:04:34;;;;;;;12.93;9.05;;;27.60;39.70;;;;;;4860212;29;20108;-83
2022/11/25 10:07:07;;;;;;;11.23;7.57;;;28.10;40.10;;;;;;4845027;29;20523;-83
2022/11/25 10:09:34;;;;;;;12.20;8.40;;;28.10;38.30;;;;;;4860575;29;20143;-83
2022/11/25 10:12:24;;;;;;;11.75;8.05;;;27.60;39.60;;;;;;4860280;29;20042;-82
2022/11/25 10:15:05;;;;;;;17.23;10.02;;;27.20;39.50;;;;;;4860034;29;20062;-83
2022/11/25 10:17:59;;;;;;;15.15;9.95;;;27.60;39.70;;;;;;4844760;29;20037;-83
2022/11/25 10:20:37;;;;;;;11.90;8.15;;;27.90;39.50;;;;;;4858868;29;20029;-83
2022/11/25 10:23:11;;;;;;;11.68;7.55;;;27.90;39.50;;;;;;4844753;29;20041;-83
2022/11/25 10:25:41;;;;;;;15.73;10.85;;;27.40;39.20;;;;;;4860048;29;20041;-83
2022/11/25 10:28:17;;;;;;;10.38;7.43;;;27.10;39.80;;;;;;4844737;29;20490;-83
2022/11/25 10:31:01;;;;;;;11.77;7.65;;;26.40;39.70;;;;;;4895422;29;20032;-83
2022/11/25 10:33:31;;;;;;;11.00;7.72;;;25.90;41.10;;;;;;4936898;29;20363;-83
2022/11/25 10:36:03;;;;;;;10.43;7.30;;;25.40;40.00;;;;;;4937214;29;20053;-83
2022/11/25 10:38:44;;;;;;;11.48;7.03;;;24.70;41.40;;;;;;4919685;29;20019;-83
2022/11/25 10:41:19;;;;;;;10.93;7.38;;;25.20;41.20;;;;;;4919954;29;20027;-83
2022/11/25 10:43:46;;;;;;;10.63;7.32;;;24.90;41.50;;;;;;4919830;29;20060;-82
2022/11/25 10:46:41;;;;;;;11.45;7.22;;;25.10;42.00;;;;;;4919986;29;20070;-83
2022/11/25 10:49:18;;;;;;;11.45;7.28;;;24.60;41.60;;;;;;4936297;29;20471;-82
2022/11/25 10:51:47;;;;;;;11.00;7.28;;;24.20;41.90;;;;;;4919625;29;20051;-82
2022/11/25 10:54:18;;;;;;;9.10;6.63;;;23.50;43.00;;;;;;4919634;29;20027;-83
2022/11/25 10:56:48;;;;;;;10.63;7.10;;;23.00;43.20;;;;;;4919829;29;20110;-82
2022/11/25 10:59:24;;;;;;;9.85;6.80;;;22.70;43.50;;;;;;4936599;29;20480;-82
2022/11/25 11:01:52;;;;;;;11.48;7.20;;;22.70;44.20;;;;;;4936780;29;20023;-81
2022/11/25 11:04:19;;;;;;;10.23;7.30;;;22.40;43.70;;;;;;4919321;29;20027;-83
2022/11/25 11:06:47;;;;;;;11.18;7.22;;;21.50;45.20;;;;;;4919290;29;20026;-80
2022/11/25 11:09:35;;;;;;;13.85;7.82;;;20.90;45.90;;;;;;4919447;29;20027;-82
2022/11/25 11:12:21;;;;;;;13.15;8.15;;;19.90;47.20;;;;;;4919237;29;20024;-82
2022/11/25 11:14:47;;;;;;;11.38;8.10;;;19.20;48.30;;;;;;4918639;29;20023;-83
2022/11/25 11:17:26;;;;;;;13.65;9.05;;;18.60;49.60;;;;;;4919487;29;20179;-82
2022/11/25 11:20:07;;;;;;;15.07;9.20;;;18.10;50.20;;;;;;4936277;29;20024;-82
2022/11/25 11:22:43;;;;;;;;;;;18.00;50.50;;;;;;4936639;29;20019;-82
2022/11/25 11:25:26;;;;;;;12.80;8.18;;;17.60;51.00;;;;;;4919214;29;19911;-82
2022/11/25 11:27:52;;;;;;;12.80;8.50;;;17.60;51.40;;;;;;4936065;29;20023;-83
2022/11/25 11:30:19;;;;;;;13.18;8.82;;;17.60;51.30;;;;;;4919376;29;20047;-81
2022/11/25 11:32:57;;;;;;;12.90;8.40;;;16.90;52.40;;;;;;4919095;29;20034;-81
2022/11/25 11:36:00;;;;;;;15.20;9.30;;;16.60;52.80;;;;;;4935951;29;20023;-82
2022/11/25 11:38:36;;;;;;;15.18;9.05;;;16.80;53.20;;;;;;4918868;29;20027;-84
2022/11/25 11:41:11;;;;;;;14.82;9.73;;;17.00;53.30;;;;;;4919033;29;20145;-82
2022/11/25 11:43:56;;;;;;;15.80;9.57;;;17.10;52.80;;;;;;4919017;29;20031;-82
2022/11/25 11:47:02;;;;;;;13.13;9.40;;;16.70;53.50;;;;;;4748411;29;10001133;-82
2022/11/25 11:49:49;;;;;;;15.80;10.30;;;16.80;53.40;;;;;;4917121;29;20217;-83
2022/11/25 11:52:28;;;;;;;14.80;9.40;;;17.10;52.90;;;;;;4931421;29;20391;-80
2022/11/25 11:55:33;;;;;;;17.02;9.93;;;17.30;53.10;;;;;;4916797;29;20111;-81
2022/11/25 11:58:38;;;;;;;18.17;11.02;;;17.20;53.30;;;;;;4917044;29;20396;-81
2022/11/25 12:01:21;;;;;;;18.95;10.00;;;17.20;53.10;;;;;;4900097;29;20071;-83
2022/11/25 12:04:26;;;;;;;16.73;10.30;;;16.90;53.50;;;;;;4903590;29;20043;-82
2022/11/25 12:07:06;;;;;;;16.88;11.27;;;17.10;53.40;;;;;;4903737;29;20021;-84
2022/11/25 12:09:36;;;;;;;15.32;10.30;;;17.10;52.90;;;;;;4903980;29;20032;-82
2022/11/25 12:12:08;;;;;;;17.70;10.80;;;17.10;53.70;;;;;;4903420;29;20519;-82
2022/11/25 12:14:45;;;;;;;18.63;11.23;;;17.50;53.60;;;;;;4920489;29;20084;-82
2022/11/25 12:17:30;;;;;;;18.85;11.20;;;17.90;53.10;;;;;;4903646;29;20035;-82
2022/11/25 12:20:13;;;;;;;16.33;10.75;;;18.00;52.70;;;;;;4903649;29;20119;-82
2022/11/25 12:22:51;;;;;;;16.30;10.25;;;18.10;52.50;;;;;;4903352;29;20083;-82
2022/11/25 12:25:22;;;;;;;17.05;11.40;;;18.20;53.00;;;;;;4920327;29;20399;-82
2022/11/25 12:28:18;;;;;;;19.52;12.25;;;18.30;52.30;;;;;;4903364;29;20060;-83
2022/11/25 12:31:02;;;;;;;20.75;12.70;;;18.20;52.50;;;;;;4919058;29;20160;-82
2022/11/25 12:33:52;;;;;;;19.85;12.65;;;18.20;52.90;;;;;;4920160;29;20028;-82
2022/11/25 12:36:27;;;;;;;19.15;12.25;;;17.80;52.90;;;;;;4903196;29;20059;-81
2022/11/25 12:39:14;;;;;;;21.48;13.68;;;17.80;53.50;;;;;;4934875;29;20028;-81
2022/11/25 12:41:52;;;;;;;20.30;12.15;;;17.80;53.10;;;;;;4902982;29;20072;-82
2022/11/25 12:44:23;;;;;;;18.10;11.68;;;17.90;53.40;;;;;;4903017;29;20071;-82
2022/11/25 12:46:52;;;;;;;17.92;12.23;;;17.80;53.30;;;;;;4919516;29;20229;-83
2022/11/25 12:49:20;;;;;;;20.52;12.63;;;17.30;53.80;;;;;;4903036;29;20896;-82
2022/11/25 12:52:01;;;;;;;20.80;11.40;;;17.40;54.10;;;;;;4903031;29;20083;-82
2022/11/25 12:54:44;;;;;;;18.00;10.60;;;17.10;54.10;;;;;;4934424;29;20028;-81
2022/11/25 12:57:23;;;;;;;18.13;10.20;;;17.00;54.40;;;;;;4903105;29;20016;-82